sensor_id;sensor_type;location;lat;lon;timestamp;P1;durP1;ratioP1;P2;durP2;ratioP2
45254;SDS011;30989;52.078;21.014;2023-08-06T00:00:05;27.63;;;11.90;;
45254;SDS011;30989;52.078;21.014;2023-08-06T00:02:34;29.17;;;11.57;;
45254;SDS011;30989;52.078;21.014;2023-08-06T00:05:00;26.95;;;11.05;;
45254;SDS011;30989;52.078;21.014;2023-08-06T00:07:25;27.88;;;11.43;;
45254;SDS011;30989;52.078;21.014;2023-08-06T00:09:50;25.27;;;10.95;;
45254;SDS011;30989;52.078;21.014;2023-08-06T00:12:16;22.08;;;10.30;;
45254;SDS011;30989;52.078;21.014;2023-08-06T00:14:41;20.60;;;10.77;;
45254;SDS011;30989;52.078;21.014;2023-08-06T00:17:07;28.15;;;11.70;;
45254;SDS011;30989;52.078;21.014;2023-08-06T00:19:33;23.63;;;10.45;;
45254;SDS011;30989;52.078;21.014;2023-08-06T00:21:58;24.02;;;11.02;;
45254;SDS011;30989;52.078;21.014;2023-08-06T00:24:24;21.70;;;9.43;;
45254;SDS011;30989;52.078;21.014;2023-08-06T00:26:49;24.10;;;10.80;;
45254;SDS011;30989;52.078;21.014;2023-08-06T00:29:15;19.98;;;10.60;;
45254;SDS011;30989;52.078;21.014;2023-08-06T00:31:41;18.67;;;10.27;;
45254;SDS011;30989;52.078;21.014;2023-08-06T00:34:06;18.40;;;9.18;;
45254;SDS011;30989;52.078;21.014;2023-08-06T00:36:32;18.42;;;9.20;;
45254;SDS011;30989;52.078;21.014;2023-08-06T00:38:57;19.85;;;8.07;;
45254;SDS011;30989;52.078;21.014;2023-08-06T00:41:22;16.55;;;8.95;;
45254;SDS011;30989;52.078;21.014;2023-08-06T00:43:48;23.13;;;9.88;;
45254;SDS011;30989;52.078;21.014;2023-08-06T00:46:13;15.77;;;8.23;;
45254;SDS011;30989;52.078;21.014;2023-08-06T00:48:40;19.67;;;9.45;;
45254;SDS011;30989;52.078;21.014;2023-08-06T00:51:06;17.65;;;8.63;;
45254;SDS011;30989;52.078;21.014;2023-08-06T00:53:34;17.05;;;8.15;;
45254;SDS011;30989;52.078;21.014;2023-08-06T00:56:00;14.85;;;7.18;;
45254;SDS011;30989;52.078;21.014;2023-08-06T00:58:29;13.85;;;7.28;;
45254;SDS011;30989;52.078;21.014;2023-08-06T01:00:54;12.25;;;6.95;;
45254;SDS011;30989;52.078;21.014;2023-08-06T01:03:20;16.08;;;7.93;;
45254;SDS011;30989;52.078;21.014;2023-08-06T01:05:45;11.75;;;6.43;;
45254;SDS011;30989;52.078;21.014;2023-08-06T01:11:00;14.43;;;7.47;;
45254;SDS011;30989;52.078;21.014;2023-08-06T01:16:05;10.52;;;6.10;;
45254;SDS011;30989;52.078;21.014;2023-08-06T01:18:31;12.50;;;6.10;;
45254;SDS011;30989;52.078;21.014;2023-08-06T01:20:57;11.10;;;6.30;;
45254;SDS011;30989;52.078;21.014;2023-08-06T01:23:22;9.25;;;5.82;;
45254;SDS011;30989;52.078;21.014;2023-08-06T01:29:07;10.70;;;5.97;;
45254;SDS011;30989;52.078;21.014;2023-08-06T01:31:37;26.10;;;6.95;;
45254;SDS011;30989;52.078;21.014;2023-08-06T01:34:05;10.93;;;6.80;;
45254;SDS011;30989;52.078;21.014;2023-08-06T01:36:34;12.40;;;6.20;;
45254;SDS011;30989;52.078;21.014;2023-08-06T01:39:01;11.35;;;6.50;;
45254;SDS011;30989;52.078;21.014;2023-08-06T01:41:26;11.60;;;6.00;;
45254;SDS011;30989;52.078;21.014;2023-08-06T01:43:52;11.25;;;6.93;;
45254;SDS011;30989;52.078;21.014;2023-08-06T01:46:17;13.38;;;6.45;;
45254;SDS011;30989;52.078;21.014;2023-08-06T01:48:43;11.65;;;6.28;;
45254;SDS011;30989;52.078;21.014;2023-08-06T01:51:09;11.38;;;6.95;;
45254;SDS011;30989;52.078;21.014;2023-08-06T01:53:34;13.20;;;6.05;;
45254;SDS011;30989;52.078;21.014;2023-08-06T01:56:00;9.45;;;5.50;;
45254;SDS011;30989;52.078;21.014;2023-08-06T01:58:25;12.30;;;6.10;;
45254;SDS011;30989;52.078;21.014;2023-08-06T02:00:51;10.65;;;5.57;;
45254;SDS011;30989;52.078;21.014;2023-08-06T02:03:16;10.68;;;5.25;;
45254;SDS011;30989;52.078;21.014;2023-08-06T02:05:42;11.85;;;6.53;;
45254;SDS011;30989;52.078;21.014;2023-08-06T02:08:07;9.90;;;6.13;;
45254;SDS011;30989;52.078;21.014;2023-08-06T02:10:33;12.35;;;7.30;;
45254;SDS011;30989;52.078;21.014;2023-08-06T02:12:58;12.85;;;6.60;;
45254;SDS011;30989;52.078;21.014;2023-08-06T02:15:24;9.75;;;5.85;;
45254;SDS011;30989;52.078;21.014;2023-08-06T02:17:49;11.13;;;5.95;;
45254;SDS011;30989;52.078;21.014;2023-08-06T02:20:15;12.93;;;6.55;;
45254;SDS011;30989;52.078;21.014;2023-08-06T02:22:40;15.60;;;6.20;;
45254;SDS011;30989;52.078;21.014;2023-08-06T02:25:07;13.18;;;6.97;;
45254;SDS011;30989;52.078;21.014;2023-08-06T02:27:32;10.10;;;5.70;;
45254;SDS011;30989;52.078;21.014;2023-08-06T02:29:58;11.75;;;6.32;;
45254;SDS011;30989;52.078;21.014;2023-08-06T02:32:23;9.13;;;5.63;;
45254;SDS011;30989;52.078;21.014;2023-08-06T02:34:49;8.93;;;4.53;;
45254;SDS011;30989;52.078;21.014;2023-08-06T02:37:14;16.27;;;6.07;;
45254;SDS011;30989;52.078;21.014;2023-08-06T02:39:40;10.38;;;6.03;;
45254;SDS011;30989;52.078;21.014;2023-08-06T02:42:06;11.05;;;6.00;;
45254;SDS011;30989;52.078;21.014;2023-08-06T02:44:32;11.48;;;6.30;;
45254;SDS011;30989;52.078;21.014;2023-08-06T02:46:58;9.70;;;5.85;;
45254;SDS011;30989;52.078;21.014;2023-08-06T02:49:24;9.85;;;5.80;;
45254;SDS011;30989;52.078;21.014;2023-08-06T02:51:50;9.35;;;6.15;;
45254;SDS011;30989;52.078;21.014;2023-08-06T02:54:15;10.45;;;6.60;;
45254;SDS011;30989;52.078;21.014;2023-08-06T02:56:47;10.35;;;5.53;;
45254;SDS011;30989;52.078;21.014;2023-08-06T02:59:20;9.77;;;6.40;;
45254;SDS011;30989;52.078;21.014;2023-08-06T03:01:52;9.90;;;6.75;;
45254;SDS011;30989;52.078;21.014;2023-08-06T03:04:25;12.52;;;6.65;;
45254;SDS011;30989;52.078;21.014;2023-08-06T03:06:51;11.85;;;6.57;;
45254;SDS011;30989;52.078;21.014;2023-08-06T03:09:18;12.52;;;6.50;;
45254;SDS011;30989;52.078;21.014;2023-08-06T03:11:43;11.73;;;6.10;;
45254;SDS011;30989;52.078;21.014;2023-08-06T03:14:12;12.32;;;7.30;;
45254;SDS011;30989;52.078;21.014;2023-08-06T03:16:38;11.68;;;6.90;;
45254;SDS011;30989;52.078;21.014;2023-08-06T03:19:04;12.68;;;6.72;;
45254;SDS011;30989;52.078;21.014;2023-08-06T03:21:30;12.85;;;7.50;;
45254;SDS011;30989;52.078;21.014;2023-08-06T03:23:57;12.80;;;7.55;;
45254;SDS011;30989;52.078;21.014;2023-08-06T03:26:25;10.52;;;6.85;;
45254;SDS011;30989;52.078;21.014;2023-08-06T03:28:51;12.23;;;7.07;;
45254;SDS011;30989;52.078;21.014;2023-08-06T03:31:16;14.05;;;8.25;;
45254;SDS011;30989;52.078;21.014;2023-08-06T03:33:44;16.17;;;7.88;;
45254;SDS011;30989;52.078;21.014;2023-08-06T03:36:14;10.73;;;6.22;;
45254;SDS011;30989;52.078;21.014;2023-08-06T03:38:40;13.38;;;6.88;;
45254;SDS011;30989;52.078;21.014;2023-08-06T03:41:07;15.15;;;7.88;;
45254;SDS011;30989;52.078;21.014;2023-08-06T03:43:33;16.05;;;8.52;;
45254;SDS011;30989;52.078;21.014;2023-08-06T03:45:59;13.57;;;7.90;;
45254;SDS011;30989;52.078;21.014;2023-08-06T03:48:25;12.85;;;7.25;;
45254;SDS011;30989;52.078;21.014;2023-08-06T03:50:50;10.77;;;7.22;;
45254;SDS011;30989;52.078;21.014;2023-08-06T03:53:17;11.32;;;6.57;;
45254;SDS011;30989;52.078;21.014;2023-08-06T03:55:43;11.68;;;6.63;;
45254;SDS011;30989;52.078;21.014;2023-08-06T03:58:08;13.98;;;8.13;;
45254;SDS011;30989;52.078;21.014;2023-08-06T04:00:34;14.57;;;8.38;;
45254;SDS011;30989;52.078;21.014;2023-08-06T04:02:59;15.18;;;8.10;;
45254;SDS011;30989;52.078;21.014;2023-08-06T04:05:27;11.80;;;7.55;;
45254;SDS011;30989;52.078;21.014;2023-08-06T04:07:52;12.93;;;7.82;;
45254;SDS011;30989;52.078;21.014;2023-08-06T04:10:19;12.55;;;7.70;;
45254;SDS011;30989;52.078;21.014;2023-08-06T04:12:44;16.23;;;8.40;;
45254;SDS011;30989;52.078;21.014;2023-08-06T04:15:10;11.90;;;7.75;;
45254;SDS011;30989;52.078;21.014;2023-08-06T04:17:35;13.43;;;7.93;;
45254;SDS011;30989;52.078;21.014;2023-08-06T04:20:00;16.50;;;9.18;;
45254;SDS011;30989;52.078;21.014;2023-08-06T04:22:27;14.57;;;8.25;;
45254;SDS011;30989;52.078;21.014;2023-08-06T04:24:52;14.10;;;8.32;;
45254;SDS011;30989;52.078;21.014;2023-08-06T04:27:18;14.27;;;7.88;;
45254;SDS011;30989;52.078;21.014;2023-08-06T04:29:45;19.30;;;8.20;;
45254;SDS011;30989;52.078;21.014;2023-08-06T04:32:13;17.45;;;7.75;;
45254;SDS011;30989;52.078;21.014;2023-08-06T04:34:43;22.55;;;8.30;;
45254;SDS011;30989;52.078;21.014;2023-08-06T04:37:09;12.98;;;8.55;;
45254;SDS011;30989;52.078;21.014;2023-08-06T04:39:34;13.48;;;8.43;;
45254;SDS011;30989;52.078;21.014;2023-08-06T04:42:00;12.98;;;8.27;;
45254;SDS011;30989;52.078;21.014;2023-08-06T04:44:26;12.32;;;8.32;;
45254;SDS011;30989;52.078;21.014;2023-08-06T04:46:52;12.57;;;7.68;;
45254;SDS011;30989;52.078;21.014;2023-08-06T04:49:18;12.27;;;7.88;;
45254;SDS011;30989;52.078;21.014;2023-08-06T04:51:45;13.45;;;7.53;;
45254;SDS011;30989;52.078;21.014;2023-08-06T04:54:10;13.52;;;8.15;;
45254;SDS011;30989;52.078;21.014;2023-08-06T04:56:36;11.30;;;7.75;;
45254;SDS011;30989;52.078;21.014;2023-08-06T04:59:01;15.57;;;7.45;;
45254;SDS011;30989;52.078;21.014;2023-08-06T05:01:27;19.77;;;8.88;;
45254;SDS011;30989;52.078;21.014;2023-08-06T05:03:53;10.90;;;7.80;;
45254;SDS011;30989;52.078;21.014;2023-08-06T05:06:19;12.57;;;8.45;;
45254;SDS011;30989;52.078;21.014;2023-08-06T05:08:44;13.43;;;7.70;;
45254;SDS011;30989;52.078;21.014;2023-08-06T05:11:09;14.68;;;7.97;;
45254;SDS011;30989;52.078;21.014;2023-08-06T05:13:35;13.57;;;8.13;;
45254;SDS011;30989;52.078;21.014;2023-08-06T05:16:00;11.98;;;7.85;;
45254;SDS011;30989;52.078;21.014;2023-08-06T05:18:26;14.30;;;8.35;;
45254;SDS011;30989;52.078;21.014;2023-08-06T05:20:51;11.73;;;7.13;;
45254;SDS011;30989;52.078;21.014;2023-08-06T05:23:16;10.55;;;7.13;;
45254;SDS011;30989;52.078;21.014;2023-08-06T05:25:42;13.70;;;8.00;;
45254;SDS011;30989;52.078;21.014;2023-08-06T05:28:07;12.70;;;7.68;;
45254;SDS011;30989;52.078;21.014;2023-08-06T05:30:33;11.13;;;7.57;;
45254;SDS011;30989;52.078;21.014;2023-08-06T05:32:58;11.32;;;7.35;;
45254;SDS011;30989;52.078;21.014;2023-08-06T05:35:24;12.57;;;7.10;;
45254;SDS011;30989;52.078;21.014;2023-08-06T05:37:52;14.98;;;8.20;;
45254;SDS011;30989;52.078;21.014;2023-08-06T05:40:18;10.50;;;6.70;;
45254;SDS011;30989;52.078;21.014;2023-08-06T05:42:43;9.20;;;6.55;;
45254;SDS011;30989;52.078;21.014;2023-08-06T05:45:09;10.82;;;6.43;;
45254;SDS011;30989;52.078;21.014;2023-08-06T05:47:35;8.43;;;5.93;;
45254;SDS011;30989;52.078;21.014;2023-08-06T05:50:00;8.35;;;5.80;;
45254;SDS011;30989;52.078;21.014;2023-08-06T05:52:26;9.90;;;6.35;;
45254;SDS011;30989;52.078;21.014;2023-08-06T05:54:51;13.63;;;7.45;;
45254;SDS011;30989;52.078;21.014;2023-08-06T05:57:17;9.68;;;6.38;;
45254;SDS011;30989;52.078;21.014;2023-08-06T05:59:43;11.27;;;6.47;;
45254;SDS011;30989;52.078;21.014;2023-08-06T06:02:08;10.60;;;6.35;;
45254;SDS011;30989;52.078;21.014;2023-08-06T06:04:34;8.52;;;6.10;;
45254;SDS011;30989;52.078;21.014;2023-08-06T06:06:59;10.00;;;5.97;;
45254;SDS011;30989;52.078;21.014;2023-08-06T06:09:25;9.88;;;6.50;;
45254;SDS011;30989;52.078;21.014;2023-08-06T06:11:50;11.30;;;6.22;;
45254;SDS011;30989;52.078;21.014;2023-08-06T06:14:19;9.90;;;6.40;;
45254;SDS011;30989;52.078;21.014;2023-08-06T06:16:44;10.30;;;6.47;;
45254;SDS011;30989;52.078;21.014;2023-08-06T06:19:10;11.45;;;5.97;;
45254;SDS011;30989;52.078;21.014;2023-08-06T06:21:36;10.57;;;5.63;;
45254;SDS011;30989;52.078;21.014;2023-08-06T06:24:03;10.57;;;5.82;;
45254;SDS011;30989;52.078;21.014;2023-08-06T06:26:29;11.95;;;5.90;;
45254;SDS011;30989;52.078;21.014;2023-08-06T06:28:54;12.63;;;6.03;;
45254;SDS011;30989;52.078;21.014;2023-08-06T06:31:20;10.30;;;6.72;;
45254;SDS011;30989;52.078;21.014;2023-08-06T06:33:45;9.00;;;5.65;;
45254;SDS011;30989;52.078;21.014;2023-08-06T06:36:11;21.33;;;8.30;;
45254;SDS011;30989;52.078;21.014;2023-08-06T06:38:36;11.43;;;6.05;;
45254;SDS011;30989;52.078;21.014;2023-08-06T06:41:02;13.82;;;5.68;;
45254;SDS011;30989;52.078;21.014;2023-08-06T06:43:28;10.63;;;5.85;;
45254;SDS011;30989;52.078;21.014;2023-08-06T06:45:57;9.23;;;5.53;;
45254;SDS011;30989;52.078;21.014;2023-08-06T06:48:26;18.02;;;7.07;;
45254;SDS011;30989;52.078;21.014;2023-08-06T06:50:53;30.80;;;8.95;;
45254;SDS011;30989;52.078;21.014;2023-08-06T06:53:18;18.02;;;7.38;;
45254;SDS011;30989;52.078;21.014;2023-08-06T06:55:44;11.68;;;6.18;;
45254;SDS011;30989;52.078;21.014;2023-08-06T06:58:09;10.68;;;6.03;;
45254;SDS011;30989;52.078;21.014;2023-08-06T07:00:35;12.60;;;6.05;;
45254;SDS011;30989;52.078;21.014;2023-08-06T07:03:04;9.05;;;5.07;;
45254;SDS011;30989;52.078;21.014;2023-08-06T07:05:29;10.73;;;5.25;;
45254;SDS011;30989;52.078;21.014;2023-08-06T07:07:54;13.18;;;5.93;;
45254;SDS011;30989;52.078;21.014;2023-08-06T07:10:20;8.77;;;5.63;;
45254;SDS011;30989;52.078;21.014;2023-08-06T07:12:45;11.15;;;5.85;;
45254;SDS011;30989;52.078;21.014;2023-08-06T07:15:11;8.38;;;5.28;;
45254;SDS011;30989;52.078;21.014;2023-08-06T07:17:36;13.25;;;5.00;;
45254;SDS011;30989;52.078;21.014;2023-08-06T07:20:02;12.25;;;5.97;;
45254;SDS011;30989;52.078;21.014;2023-08-06T07:22:28;11.38;;;5.03;;
45254;SDS011;30989;52.078;21.014;2023-08-06T07:24:53;14.90;;;5.78;;
45254;SDS011;30989;52.078;21.014;2023-08-06T07:27:19;10.40;;;5.72;;
45254;SDS011;30989;52.078;21.014;2023-08-06T07:29:44;8.93;;;5.32;;
45254;SDS011;30989;52.078;21.014;2023-08-06T07:32:09;7.97;;;5.60;;
45254;SDS011;30989;52.078;21.014;2023-08-06T07:34:35;7.70;;;5.00;;
45254;SDS011;30989;52.078;21.014;2023-08-06T07:37:00;13.13;;;6.85;;
45254;SDS011;30989;52.078;21.014;2023-08-06T07:39:26;10.35;;;5.47;;
45254;SDS011;30989;52.078;21.014;2023-08-06T07:41:53;10.93;;;6.00;;
45254;SDS011;30989;52.078;21.014;2023-08-06T07:44:19;11.70;;;5.47;;
45254;SDS011;30989;52.078;21.014;2023-08-06T07:46:44;7.80;;;5.07;;
45254;SDS011;30989;52.078;21.014;2023-08-06T07:49:09;12.38;;;5.13;;
45254;SDS011;30989;52.078;21.014;2023-08-06T07:51:36;9.52;;;5.90;;
45254;SDS011;30989;52.078;21.014;2023-08-06T07:54:02;13.10;;;7.30;;
45254;SDS011;30989;52.078;21.014;2023-08-06T07:56:28;6.78;;;5.07;;
45254;SDS011;30989;52.078;21.014;2023-08-06T07:58:54;9.05;;;5.38;;
45254;SDS011;30989;52.078;21.014;2023-08-06T08:01:19;9.98;;;6.00;;
45254;SDS011;30989;52.078;21.014;2023-08-06T08:03:44;9.30;;;5.20;;
45254;SDS011;30989;52.078;21.014;2023-08-06T08:06:10;7.63;;;4.47;;
45254;SDS011;30989;52.078;21.014;2023-08-06T08:08:36;16.58;;;8.80;;
45254;SDS011;30989;52.078;21.014;2023-08-06T08:11:03;12.82;;;5.72;;
45254;SDS011;30989;52.078;21.014;2023-08-06T08:13:29;6.90;;;4.78;;
45254;SDS011;30989;52.078;21.014;2023-08-06T08:15:57;9.02;;;5.05;;
45254;SDS011;30989;52.078;21.014;2023-08-06T08:18:24;10.88;;;4.90;;
45254;SDS011;30989;52.078;21.014;2023-08-06T08:20:50;6.72;;;4.88;;
45254;SDS011;30989;52.078;21.014;2023-08-06T08:23:16;8.00;;;5.70;;
45254;SDS011;30989;52.078;21.014;2023-08-06T08:25:41;8.05;;;4.85;;
45254;SDS011;30989;52.078;21.014;2023-08-06T08:28:07;11.52;;;5.05;;
45254;SDS011;30989;52.078;21.014;2023-08-06T08:30:32;13.88;;;4.97;;
45254;SDS011;30989;52.078;21.014;2023-08-06T08:32:58;12.05;;;4.80;;
45254;SDS011;30989;52.078;21.014;2023-08-06T08:35:24;8.70;;;5.10;;
45254;SDS011;30989;52.078;21.014;2023-08-06T08:37:49;10.35;;;5.72;;
45254;SDS011;30989;52.078;21.014;2023-08-06T08:40:15;9.40;;;5.55;;
45254;SDS011;30989;52.078;21.014;2023-08-06T08:42:41;9.57;;;6.28;;
45254;SDS011;30989;52.078;21.014;2023-08-06T08:45:13;11.20;;;4.95;;
45254;SDS011;30989;52.078;21.014;2023-08-06T08:47:42;9.50;;;6.30;;
45254;SDS011;30989;52.078;21.014;2023-08-06T08:50:08;7.57;;;4.57;;
45254;SDS011;30989;52.078;21.014;2023-08-06T08:52:35;13.32;;;5.32;;
45254;SDS011;30989;52.078;21.014;2023-08-06T08:55:01;7.53;;;5.00;;
45254;SDS011;30989;52.078;21.014;2023-08-06T08:57:27;7.95;;;4.60;;
45254;SDS011;30989;52.078;21.014;2023-08-06T08:59:52;10.20;;;5.18;;
45254;SDS011;30989;52.078;21.014;2023-08-06T09:02:18;8.90;;;4.93;;
45254;SDS011;30989;52.078;21.014;2023-08-06T09:04:46;7.25;;;4.80;;
45254;SDS011;30989;52.078;21.014;2023-08-06T09:07:13;9.85;;;5.70;;
45254;SDS011;30989;52.078;21.014;2023-08-06T09:09:43;8.70;;;4.85;;
45254;SDS011;30989;52.078;21.014;2023-08-06T09:12:12;6.63;;;4.63;;
45254;SDS011;30989;52.078;21.014;2023-08-06T09:14:40;7.32;;;4.80;;
45254;SDS011;30989;52.078;21.014;2023-08-06T09:17:06;10.82;;;5.20;;
45254;SDS011;30989;52.078;21.014;2023-08-06T09:19:31;9.55;;;4.05;;
45254;SDS011;30989;52.078;21.014;2023-08-06T09:21:57;8.73;;;4.75;;
45254;SDS011;30989;52.078;21.014;2023-08-06T09:24:23;16.75;;;5.25;;
45254;SDS011;30989;52.078;21.014;2023-08-06T09:26:49;7.65;;;4.55;;
45254;SDS011;30989;52.078;21.014;2023-08-06T09:29:14;10.40;;;5.20;;
45254;SDS011;30989;52.078;21.014;2023-08-06T09:31:40;7.07;;;3.97;;
45254;SDS011;30989;52.078;21.014;2023-08-06T09:34:10;7.60;;;4.53;;
45254;SDS011;30989;52.078;21.014;2023-08-06T09:36:43;8.80;;;4.03;;
45254;SDS011;30989;52.078;21.014;2023-08-06T09:39:15;8.38;;;3.97;;
45254;SDS011;30989;52.078;21.014;2023-08-06T09:41:42;9.80;;;4.40;;
45254;SDS011;30989;52.078;21.014;2023-08-06T09:44:15;5.68;;;3.63;;
45254;SDS011;30989;52.078;21.014;2023-08-06T09:46:41;8.02;;;3.65;;
45254;SDS011;30989;52.078;21.014;2023-08-06T09:49:07;6.93;;;4.10;;
45254;SDS011;30989;52.078;21.014;2023-08-06T09:51:34;7.28;;;4.30;;
45254;SDS011;30989;52.078;21.014;2023-08-06T09:54:01;5.47;;;3.45;;
45254;SDS011;30989;52.078;21.014;2023-08-06T09:56:27;7.93;;;4.07;;
45254;SDS011;30989;52.078;21.014;2023-08-06T09:58:53;6.28;;;4.32;;
45254;SDS011;30989;52.078;21.014;2023-08-06T10:01:20;6.82;;;3.90;;
45254;SDS011;30989;52.078;21.014;2023-08-06T10:03:47;6.38;;;3.88;;
45254;SDS011;30989;52.078;21.014;2023-08-06T10:06:15;5.85;;;3.72;;
45254;SDS011;30989;52.078;21.014;2023-08-06T10:08:40;8.98;;;4.22;;
45254;SDS011;30989;52.078;21.014;2023-08-06T10:11:07;7.72;;;3.88;;
45254;SDS011;30989;52.078;21.014;2023-08-06T10:13:33;8.27;;;3.78;;
45254;SDS011;30989;52.078;21.014;2023-08-06T10:16:00;5.60;;;4.07;;
45254;SDS011;30989;52.078;21.014;2023-08-06T10:18:27;9.55;;;4.43;;
45254;SDS011;30989;52.078;21.014;2023-08-06T10:20:53;5.88;;;3.88;;
45254;SDS011;30989;52.078;21.014;2023-08-06T10:23:19;6.10;;;3.58;;
45254;SDS011;30989;52.078;21.014;2023-08-06T10:25:46;11.55;;;5.13;;
45254;SDS011;30989;52.078;21.014;2023-08-06T10:28:20;7.70;;;3.92;;
45254;SDS011;30989;52.078;21.014;2023-08-06T10:30:46;5.47;;;3.17;;
45254;SDS011;30989;52.078;21.014;2023-08-06T10:33:12;7.15;;;3.20;;
45254;SDS011;30989;52.078;21.014;2023-08-06T10:35:40;5.95;;;3.58;;
45254;SDS011;30989;52.078;21.014;2023-08-06T10:38:10;8.82;;;3.78;;
45254;SDS011;30989;52.078;21.014;2023-08-06T10:46:23;6.82;;;3.47;;
45254;SDS011;30989;52.078;21.014;2023-08-06T10:48:53;7.40;;;4.05;;
45254;SDS011;30989;52.078;21.014;2023-08-06T10:51:19;6.85;;;3.97;;
45254;SDS011;30989;52.078;21.014;2023-08-06T10:53:46;5.50;;;3.70;;
45254;SDS011;30989;52.078;21.014;2023-08-06T10:56:22;6.47;;;3.67;;
45254;SDS011;30989;52.078;21.014;2023-08-06T10:58:49;9.15;;;4.38;;
45254;SDS011;30989;52.078;21.014;2023-08-06T11:01:16;6.13;;;3.20;;
45254;SDS011;30989;52.078;21.014;2023-08-06T11:03:45;6.28;;;3.80;;
45254;SDS011;30989;52.078;21.014;2023-08-06T11:06:16;9.38;;;5.45;;
45254;SDS011;30989;52.078;21.014;2023-08-06T11:08:49;5.10;;;2.88;;
45254;SDS011;30989;52.078;21.014;2023-08-06T11:11:16;7.28;;;3.38;;
45254;SDS011;30989;52.078;21.014;2023-08-06T11:13:46;5.32;;;3.17;;
45254;SDS011;30989;52.078;21.014;2023-08-06T11:16:12;5.60;;;3.22;;
45254;SDS011;30989;52.078;21.014;2023-08-06T11:18:39;5.35;;;3.33;;
45254;SDS011;30989;52.078;21.014;2023-08-06T11:21:07;6.30;;;3.90;;
45254;SDS011;30989;52.078;21.014;2023-08-06T11:23:33;5.30;;;3.75;;
45254;SDS011;30989;52.078;21.014;2023-08-06T11:25:59;7.05;;;3.20;;
45254;SDS011;30989;52.078;21.014;2023-08-06T11:28:25;5.47;;;3.60;;
45254;SDS011;30989;52.078;21.014;2023-08-06T11:30:51;5.75;;;2.92;;
45254;SDS011;30989;52.078;21.014;2023-08-06T11:33:23;4.70;;;3.22;;
45254;SDS011;30989;52.078;21.014;2023-08-06T11:35:50;6.60;;;3.67;;
45254;SDS011;30989;52.078;21.014;2023-08-06T11:38:16;7.13;;;3.63;;
45254;SDS011;30989;52.078;21.014;2023-08-06T11:40:46;5.80;;;2.92;;
45254;SDS011;30989;52.078;21.014;2023-08-06T11:43:12;4.55;;;3.03;;
45254;SDS011;30989;52.078;21.014;2023-08-06T11:45:39;3.83;;;2.85;;
45254;SDS011;30989;52.078;21.014;2023-08-06T11:48:05;7.32;;;3.10;;
45254;SDS011;30989;52.078;21.014;2023-08-06T11:50:35;21.45;;;10.30;;
45254;SDS011;30989;52.078;21.014;2023-08-06T11:53:02;7.85;;;4.10;;
45254;SDS011;30989;52.078;21.014;2023-08-06T11:55:28;8.45;;;3.40;;
45254;SDS011;30989;52.078;21.014;2023-08-06T11:57:54;6.57;;;2.92;;
45254;SDS011;30989;52.078;21.014;2023-08-06T12:00:22;3.90;;;2.72;;
45254;SDS011;30989;52.078;21.014;2023-08-06T12:02:49;4.43;;;2.40;;
45254;SDS011;30989;52.078;21.014;2023-08-06T12:05:18;8.52;;;3.20;;
45254;SDS011;30989;52.078;21.014;2023-08-06T12:08:00;4.38;;;2.58;;
45254;SDS011;30989;52.078;21.014;2023-08-06T12:10:30;6.15;;;2.95;;
45254;SDS011;30989;52.078;21.014;2023-08-06T12:13:00;9.20;;;4.35;;
45254;SDS011;30989;52.078;21.014;2023-08-06T12:15:26;6.07;;;2.97;;
45254;SDS011;30989;52.078;21.014;2023-08-06T12:17:51;8.73;;;3.38;;
45254;SDS011;30989;52.078;21.014;2023-08-06T12:20:19;6.68;;;2.80;;
45254;SDS011;30989;52.078;21.014;2023-08-06T12:22:45;5.22;;;3.45;;
45254;SDS011;30989;52.078;21.014;2023-08-06T12:25:11;5.43;;;2.63;;
45254;SDS011;30989;52.078;21.014;2023-08-06T12:27:38;5.15;;;3.00;;
45254;SDS011;30989;52.078;21.014;2023-08-06T12:30:05;7.63;;;2.70;;
45254;SDS011;30989;52.078;21.014;2023-08-06T12:32:31;9.25;;;4.72;;
45254;SDS011;30989;52.078;21.014;2023-08-06T12:34:56;5.00;;;3.15;;
45254;SDS011;30989;52.078;21.014;2023-08-06T12:37:22;5.55;;;2.85;;
45254;SDS011;30989;52.078;21.014;2023-08-06T12:39:50;7.38;;;2.72;;
45254;SDS011;30989;52.078;21.014;2023-08-06T12:42:16;8.20;;;3.20;;
45254;SDS011;30989;52.078;21.014;2023-08-06T12:44:41;6.43;;;3.28;;
45254;SDS011;30989;52.078;21.014;2023-08-06T12:47:07;7.35;;;3.05;;
45254;SDS011;30989;52.078;21.014;2023-08-06T12:49:36;5.68;;;2.88;;
45254;SDS011;30989;52.078;21.014;2023-08-06T12:52:01;6.05;;;3.40;;
45254;SDS011;30989;52.078;21.014;2023-08-06T12:54:27;6.13;;;2.53;;
45254;SDS011;30989;52.078;21.014;2023-08-06T12:56:53;7.18;;;3.05;;
45254;SDS011;30989;52.078;21.014;2023-08-06T12:59:18;5.65;;;3.00;;
45254;SDS011;30989;52.078;21.014;2023-08-06T13:01:44;4.28;;;2.95;;
45254;SDS011;30989;52.078;21.014;2023-08-06T13:04:10;4.38;;;2.92;;
45254;SDS011;30989;52.078;21.014;2023-08-06T13:06:36;6.82;;;3.30;;
45254;SDS011;30989;52.078;21.014;2023-08-06T13:09:04;5.43;;;2.92;;
45254;SDS011;30989;52.078;21.014;2023-08-06T13:11:31;10.70;;;6.60;;
45254;SDS011;30989;52.078;21.014;2023-08-06T13:14:03;5.53;;;3.20;;
45254;SDS011;30989;52.078;21.014;2023-08-06T13:16:29;16.15;;;7.55;;
45254;SDS011;30989;52.078;21.014;2023-08-06T13:18:54;6.05;;;3.35;;
45254;SDS011;30989;52.078;21.014;2023-08-06T13:21:20;4.60;;;3.10;;
45254;SDS011;30989;52.078;21.014;2023-08-06T13:23:45;7.47;;;3.38;;
45254;SDS011;30989;52.078;21.014;2023-08-06T13:26:10;4.18;;;2.97;;
45254;SDS011;30989;52.078;21.014;2023-08-06T13:28:36;4.72;;;3.08;;
45254;SDS011;30989;52.078;21.014;2023-08-06T13:31:01;7.93;;;2.67;;
45254;SDS011;30989;52.078;21.014;2023-08-06T13:33:29;6.72;;;2.78;;
45254;SDS011;30989;52.078;21.014;2023-08-06T13:35:55;3.95;;;2.55;;
45254;SDS011;30989;52.078;21.014;2023-08-06T13:38:21;4.35;;;2.92;;
45254;SDS011;30989;52.078;21.014;2023-08-06T13:40:46;4.93;;;2.90;;
45254;SDS011;30989;52.078;21.014;2023-08-06T13:43:12;4.50;;;2.67;;
45254;SDS011;30989;52.078;21.014;2023-08-06T13:45:38;6.32;;;3.17;;
45254;SDS011;30989;52.078;21.014;2023-08-06T13:48:03;5.30;;;2.70;;
45254;SDS011;30989;52.078;21.014;2023-08-06T13:50:29;6.38;;;2.65;;
45254;SDS011;30989;52.078;21.014;2023-08-06T13:52:54;3.65;;;2.42;;
45254;SDS011;30989;52.078;21.014;2023-08-06T13:55:21;4.80;;;2.28;;
45254;SDS011;30989;52.078;21.014;2023-08-06T13:57:47;10.55;;;2.78;;
45254;SDS011;30989;52.078;21.014;2023-08-06T14:00:12;5.25;;;2.42;;
45254;SDS011;30989;52.078;21.014;2023-08-06T14:02:38;6.18;;;2.88;;
45254;SDS011;30989;52.078;21.014;2023-08-06T14:05:04;4.38;;;2.78;;
45254;SDS011;30989;52.078;21.014;2023-08-06T14:07:30;6.72;;;2.55;;
45254;SDS011;30989;52.078;21.014;2023-08-06T14:09:55;4.75;;;2.90;;
45254;SDS011;30989;52.078;21.014;2023-08-06T14:12:22;3.85;;;2.60;;
45254;SDS011;30989;52.078;21.014;2023-08-06T14:14:48;6.05;;;3.67;;
45254;SDS011;30989;52.078;21.014;2023-08-06T14:17:13;4.43;;;2.88;;
45254;SDS011;30989;52.078;21.014;2023-08-06T14:19:38;7.35;;;3.05;;
45254;SDS011;30989;52.078;21.014;2023-08-06T14:22:04;3.88;;;2.22;;
45254;SDS011;30989;52.078;21.014;2023-08-06T14:24:29;4.25;;;2.70;;
45254;SDS011;30989;52.078;21.014;2023-08-06T14:26:55;4.78;;;2.65;;
45254;SDS011;30989;52.078;21.014;2023-08-06T14:29:22;4.95;;;2.53;;
45254;SDS011;30989;52.078;21.014;2023-08-06T14:31:47;3.40;;;2.28;;
45254;SDS011;30989;52.078;21.014;2023-08-06T14:34:13;5.00;;;2.42;;
45254;SDS011;30989;52.078;21.014;2023-08-06T14:36:38;9.88;;;7.00;;